Terminal Aerodrome Forecast
Issued by NWS

Home | Current Version | Previous Version | Text Only | Print | Product List | Glossary On
Versions: 1 2 3 4 5 6 7 8 9 10 11 12 13 14 15 16 17 18 19
088
FTUS43 KUNR 290140 AAB
TAFGCC
TAF AMD
KGCC 290140Z 2902/2924 33012KT P6SM BKN025 BKN060
     FM290400 33005KT P6SM SCT060=

USA.gov is the U.S. government's official web portal to all federal, state and local government web resources and services.